| time (UTC) | temp C | wind direction | speed KPH | gust KPH | rain 1hr cm | rain 24hr cm | rain mn cm | humidity % | barometer mb |
| 20260506221527 | 23 | 230 | 6.4 | 12.9 | 0.00 | 0.00 | 0.00 | 53 | 1020.7 |
| 20260506221024 | 23 | 94 | 3.2 | 9.7 | 0.00 | 0.00 | 0.00 | 51 | 1020.7 |
| 20260506220520 | 23 | 204 | 8.0 | 9.7 | 0.00 | 0.00 | 0.00 | 51 | 1020.7 |
| 20260506220016 | 22 | 203 | 4.8 | 9.7 | 0.00 | 0.00 | 0.00 | 53 | 1020.7 |
| 20260506215513 | 22 | 261 | 8.0 | 12.9 | 0.00 | 0.00 | 0.00 | 54 | 1020.6 |
| 20260506215009 | 22 | 202 | 9.7 | 12.9 | 0.00 | 0.00 | 0.00 | 54 | 1020.8 |
| 20260506214506 | 22 | 260 | 3.2 | 14.5 | 0.00 | 0.00 | 0.00 | 57 | 1020.9 |
| 20260506214003 | 22 | 229 | 3.2 | 12.9 | 0.00 | 0.00 | 0.00 | 55 | 1020.9 |
| 20260506213501 | 21 | 189 | 9.7 | 12.9 | 0.00 | 0.00 | 0.00 | 55 | 1020.9 |
| 20260506212958 | 22 | 166 | 8.0 | 12.9 | 0.00 | 0.00 | 0.00 | 55 | 1021.1 |
| 20260506212454 | 21 | 286 | 4.8 | 11.3 | 0.00 | 0.00 | 0.00 | 58 | 1021.0 |
| 20260506211949 | 21 | 247 | 8.0 | 11.3 | 0.00 | 0.00 | 0.00 | 56 | 1021.0 |
| 20260506211445 | 22 | 256 | 8.0 | 11.3 | 0.00 | 0.00 | 0.00 | 55 | 1021.4 |
| 20260506210942 | 21 | 206 | 3.2 | 11.3 | 0.00 | 0.00 | 0.00 | 57 | 1021.2 |
| 20260506210439 | 21 | 240 | 8.0 | 16.1 | 0.00 | 0.00 | 0.00 | 59 | 1021.3 |
| 20260506205936 | 20 | 227 | 9.7 | 16.1 | 0.00 | 0.00 | 0.00 | 59 | 1021.0 |
| 20260506205432 | 20 | 210 | 8.0 | 16.1 | 0.00 | 0.00 | 0.00 | 60 | 1021.1 |
| 20260506204928 | 21 | 236 | 11.3 | 12.9 | 0.00 | 0.00 | 0.00 | 58 | 1021.2 |
| 20260506204427 | 21 | 204 | 6.4 | 9.7 | 0.00 | 0.00 | 0.00 | 57 | 1021.3 |
| 20260506203924 | 21 | 196 | 8.0 | 11.3 | 0.00 | 0.00 | 0.00 | 57 | 1021.3 |
| 20260506203421 | 21 | 253 | 6.4 | 14.5 | 0.00 | 0.00 | 0.00 | 57 | 1021.3 |
| 20260506202918 | 20 | 276 | 3.2 | 9.7 | 0.00 | 0.00 | 0.00 | 59 | 1021.4 |
| 20260506202414 | 21 | 266 | 11.3 | 20.9 | 0.00 | 0.00 | 0.00 | 57 | 1021.3 |
| 20260506201911 | 20 | 230 | 6.4 | 12.9 | 0.00 | 0.00 | 0.00 | 59 | 1021.4 |
| 20260506201409 | 21 | 298 | 4.8 | 9.7 | 0.00 | 0.00 | 0.00 | 56 | 1021.2 |
| 20260506200905 | 21 | 170 | 4.8 | 14.5 | 0.00 | 0.00 | 0.00 | 58 | 1021.2 |
| 20260506200401 | 21 | 196 | 8.0 | 11.3 | 0.00 | 0.00 | 0.00 | 57 | 1021.3 |
| 20260506195857 | 21 | 234 | 9.7 | 17.7 | 0.00 | 0.00 | 0.00 | 58 | 1021.4 |
| 20260506195355 | 21 | 258 | 11.3 | 14.5 | 0.00 | 0.00 | 0.00 | 56 | 1021.5 |
| 20260506194852 | 21 | 108 | 4.8 | 14.5 | 0.00 | 0.00 | 0.00 | 57 | 1021.4 |
| 20260506194349 | 21 | 197 | 8.0 | 14.5 | 0.00 | 0.00 | 0.00 | 56 | 1021.2 |
| 20260506193846 | 20 | 210 | 4.8 | 12.9 | 0.00 | 0.00 | 0.00 | 59 | 1021.5 |
| 20260506193343 | 20 | 215 | 8.0 | 14.5 | 0.00 | 0.00 | 0.00 | 58 | 1021.5 |
| 20260506192839 | 20 | 196 | 4.8 | 11.3 | 0.00 | 0.00 | 0.00 | 57 | 1021.5 |
| 20260506192335 | 20 | 200 | 9.7 | 12.9 | 0.00 | 0.00 | 0.00 | 60 | 1021.5 |
| 20260506191832 | 20 | 225 | 14.5 | 17.7 | 0.00 | 0.00 | 0.00 | 60 | 1021.3 |
| 20260506191329 | 20 | 200 | 8.0 | 17.7 | 0.00 | 0.00 | 0.00 | 60 | 1021.6 |
| 20260506190826 | 20 | 215 | 8.0 | 17.7 | 0.00 | 0.00 | 0.00 | 61 | 1021.7 |
| 20260506190322 | 20 | 206 | 4.8 | 16.1 | 0.00 | 0.00 | 0.00 | 61 | 1021.6 |
| 20260506185820 | 20 | 179 | 4.8 | 14.5 | 0.00 | 0.00 | 0.00 | 62 | 1021.8 |
| 20260506185317 | 20 | 192 | 11.3 | 20.9 | 0.00 | 0.00 | 0.00 | 61 | 1021.7 |
| 20260506184813 | 20 | 265 | 4.8 | 11.3 | 0.00 | 0.00 | 0.00 | 59 | 1021.9 |
| 20260506184311 | 19 | 220 | 11.3 | 12.9 | 0.00 | 0.00 | 0.00 | 61 | 1021.6 |
| 20260506183808 | 18 | 183 | 11.3 | 14.5 | 0.00 | 0.00 | 0.00 | 62 | 1021.9 |
| 20260506183303 | 19 | 211 | 11.3 | 14.5 | 0.00 | 0.00 | 0.00 | 62 | 1021.9 |
| 20260506182801 | 18 | 275 | 8.0 | 12.9 | 0.00 | 0.00 | 0.00 | 64 | 1021.8 |
| 20260506182257 | 18 | 226 | 9.7 | 16.1 | 0.00 | 0.00 | 0.00 | 63 | 1022.0 |
| 20260506181755 | 19 | 195 | 9.7 | 12.9 | 0.00 | 0.00 | 0.00 | 62 | 1022.1 |
| 20260506181253 | 19 | 218 | 8.0 | 12.9 | 0.00 | 0.00 | 0.00 | 60 | 1022.1 |
| 20260506180750 | 18 | 215 | 8.0 | 11.3 | 0.00 | 0.00 | 0.00 | 61 | 1022.1 |
| 20260506180245 | 18 | 172 | 6.4 | 11.3 | 0.00 | 0.00 | 0.00 | 62 | 1022.0 |
| 20260506175742 | 18 | 233 | 9.7 | 14.5 | 0.00 | 0.00 | 0.00 | 63 | 1022.2 |
| 20260506175239 | 18 | 191 | 8.0 | 12.9 | 0.00 | 0.00 | 0.00 | 63 | 1022.2 |
| 20260506174737 | 18 | 258 | 9.7 | 14.5 | 0.00 | 0.00 | 0.00 | 62 | 1022.0 |
| 20260506174233 | 17 | 201 | 4.8 | 9.7 | 0.00 | 0.00 | 0.00 | 64 | 1022.3 |
| 20260506173732 | 17 | 238 | 9.7 | 14.5 | 0.00 | 0.00 | 0.00 | 64 | 1022.1 |
| 20260506173228 | 17 | 214 | 8.0 | 11.3 | 0.00 | 0.00 | 0.00 | 66 | 1022.1 |
| 20260506172724 | 17 | 245 | 9.7 | 12.9 | 0.00 | 0.00 | 0.00 | 67 | 1022.3 |
| 20260506172221 | 17 | 210 | 9.7 | 12.9 | 0.00 | 0.00 | 0.00 | 67 | 1022.3 |
| 20260506171718 | 17 | 185 | 11.3 | 14.5 | 0.00 | 0.00 | 0.00 | 66 | 1022.1 |
| 20260506171216 | 17 | 183 | 8.0 | 11.3 | 0.00 | 0.00 | 0.00 | 68 | 1022.2 |
| 20260506170713 | 17 | 236 | 9.7 | 12.9 | 0.00 | 0.00 | 0.00 | 69 | 1022.2 |
| 20260506170210 | 17 | 242 | 8.0 | 11.3 | 0.00 | 0.00 | 0.00 | 68 | 1022.0 |
| 20260506165709 | 17 | 246 | 8.0 | 14.5 | 0.00 | 0.00 | 0.00 | 67 | 1022.2 |
| 20260506165204 | 17 | 210 | 4.8 | 12.9 | 0.00 | 0.00 | 0.00 | 68 | 1021.9 |
| 20260506164702 | 17 | 208 | 3.2 | 12.9 | 0.00 | 0.00 | 0.00 | 68 | 1022.0 |
| 20260506164159 | 17 | 193 | 11.3 | 12.9 | 0.00 | 0.00 | 0.00 | 66 | 1022.2 |
| 20260506163655 | 18 | 212 | 4.8 | 11.3 | 0.00 | 0.00 | 0.00 | 66 | 1021.9 |
| 20260506163151 | 18 | 214 | 6.4 | 9.7 | 0.00 | 0.00 | 0.00 | 63 | 1022.0 |
| 20260506162647 | 18 | 210 | 3.2 | 4.8 | 0.00 | 0.00 | 0.00 | 65 | 1022.0 |
| 20260506162145 | 18 | 200 | 4.8 | 4.8 | 0.00 | 0.00 | 0.00 | 65 | 1022.2 |
| 20260506161642 | 18 | 192 | 4.8 | 4.8 | 0.00 | 0.00 | 0.00 | 64 | 1022.0 |
| 20260506161138 | 17 | 200 | 3.2 | 4.8 | 0.00 | 0.00 | 0.00 | 66 | 1022.1 |
| 20260506160636 | 17 | 264 | 1.6 | 4.8 | 0.00 | 0.00 | 0.00 | 66 | 1022.1 |
| 20260506160133 | 18 | 240 | 3.2 | 4.8 | 0.00 | 0.00 | 0.00 | 65 | 1022.4 |
| 20260506155631 | 16 | 69 | 0.0 | 1.6 | 0.00 | 0.00 | 0.00 | 69 | 1022.3 |
| 20260506155128 | 17 | 207 | 3.2 | 3.2 | 0.00 | 0.00 | 0.00 | 67 | 1022.2 |
| 20260506153224 | 17 | 164 | 1.6 | 3.2 | 0.00 | 0.00 | 0.00 | 68 | 1022.4 |
| 20260506152721 | 16 | 282 | 1.6 | 8.0 | 0.00 | 0.00 | 0.00 | 72 | 1022.4 |
| 20260506152219 | 16 | 157 | 0.0 | 3.2 | 0.00 | 0.00 | 0.00 | 73 | 1022.5 |
| 20260506151718 | 16 | 159 | 0.0 | 3.2 | 0.00 | 0.00 | 0.00 | 73 | 1022.4 |
| 20260506151214 | 16 | 223 | 3.2 | 4.8 | 0.00 | 0.00 | 0.00 | 72 | 1022.4 |
| 20260506150710 | 16 | 209 | 3.2 | 4.8 | 0.00 | 0.00 | 0.00 | 70 | 1022.5 |
| 20260506150207 | 16 | 27 | 0.0 | 1.6 | 0.00 | 0.00 | 0.00 | 70 | 1022.3 |
| 20260506145704 | 15 | 27 | 0.0 | 1.6 | 0.00 | 0.00 | 0.00 | 73 | 1022.4 |
| 20260506145201 | 15 | 27 | 0.0 | 1.6 | 0.00 | 0.00 | 0.00 | 73 | 1022.6 |
| 20260506144659 | 15 | 27 | 0.0 | 4.8 | 0.00 | 0.00 | 0.00 | 74 | 1022.4 |
| 20260506144155 | 14 | 51 | 0.0 | 1.6 | 0.00 | 0.00 | 0.00 | 77 | 1022.5 |
| 20260506143653 | 13 | 66 | 0.0 | 3.2 | 0.00 | 0.00 | 0.00 | 77 | 1022.3 |
| 20260506143150 | 13 | 57 | 0.0 | 1.6 | 0.00 | 0.00 | 0.00 | 81 | 1022.4 |
| 20260506142649 | 13 | 33 | 1.6 | 3.2 | 0.00 | 0.00 | 0.00 | 81 | 1022.4 |
| 20260506142146 | 13 | 52 | 0.0 | 1.6 | 0.00 | 0.00 | 0.00 | 82 | 1022.1 |
| 20260506141644 | 13 | 62 | 0.0 | 0.0 | 0.00 | 0.00 | 0.00 | 79 | 1022.2 |
| 20260506141142 | 12 | 62 | 0.0 | 0.0 | 0.00 | 0.00 | 0.00 | 81 | 1022.3 |
| 20260506140639 | 12 | 62 | 0.0 | 1.6 | 0.00 | 0.00 | 0.00 | 82 | 1022.2 |
| 20260506140136 | 11 | 51 | 0.0 | 0.0 | 0.00 | 0.00 | 0.00 | 88 | 1022.1 |
| 20260506135633 | 11 | 53 | 0.0 | 0.0 | 0.00 | 0.00 | 0.00 | 87 | 1021.9 |
| 20260506135129 | 11 | 69 | 0.0 | 0.0 | 0.00 | 0.00 | 0.00 | 86 | 1022.1 |
| 20260506134626 | 10 | 54 | 0.0 | 0.0 | 0.00 | 0.00 | 0.00 | 89 | 1022.1 |
| 20260506134122 | 10 | 57 | 1.6 | 3.2 | 0.00 | 0.00 | 0.00 | 89 | 1022.1 |
| 20260506133619 | 10 | 52 | 0.0 | 0.0 | 0.00 | 0.00 | 0.00 | 92 | 1022.0 |
| 20260506133116 | 9 | 52 | 0.0 | 0.0 | 0.00 | 0.00 | 0.00 | 93 | 1022.0 |
| 20260506132614 | 9 | 52 | 0.0 | 0.0 | 0.00 | 0.00 | 0.00 | 94 | 1022.1 |
| 20260506132110 | 8 | 52 | 0.0 | 0.0 | 0.00 | 0.00 | 0.00 | 93 | 1021.9 |
| 20260506131608 | 8 | 67 | 0.0 | 0.0 | 0.00 | 0.00 | 0.00 | 92 | 1021.9 |
| 20260506131104 | 9 | 67 | 0.0 | 1.6 | 0.00 | 0.00 | 0.00 | 92 | 1021.8 |
| 20260506130601 | 9 | 67 | 0.0 | 0.0 | 0.00 | 0.00 | 0.00 | 93 | 1021.7 |
| 20260506130059 | 9 | 47 | 0.0 | 0.0 | 0.00 | 0.00 | 0.00 | 93 | 1021.6 |
| 20260506125557 | 9 | 46 | 0.0 | 1.6 | 0.00 | 0.00 | 0.00 | 93 | 1021.4 |
| 20260506125054 | 9 | 45 | 0.0 | 1.6 | 0.00 | 0.00 | 0.00 | 94 | 1021.4 |
| 20260506124552 | 9 | 24 | 3.2 | 8.0 | 0.00 | 0.00 | 0.00 | 94 | 1021.5 |
| 20260506124049 | 9 | 31 | 1.6 | 3.2 | 0.00 | 0.00 | 0.00 | 93 | 1021.5 |
| 20260506123547 | 9 | 32 | 0.0 | 1.6 | 0.00 | 0.00 | 0.00 | 94 | 1021.5 |
| 20260506123045 | 9 | 32 | 1.6 | 1.6 | 0.00 | 0.00 | 0.00 | 93 | 1021.4 |
| 20260506122541 | 9 | 32 | 0.0 | 1.6 | 0.00 | 0.00 | 0.00 | 93 | 1021.5 |
| 20260506122040 | 9 | 30 | 1.6 | 3.2 | 0.00 | 0.00 | 0.00 | 94 | 1021.4 |
| 20260506121537 | 9 | 37 | 1.6 | 3.2 | 0.00 | 0.00 | 0.00 | 93 | 1021.5 |
| 20260506121033 | 9 | 37 | 1.6 | 1.6 | 0.00 | 0.00 | 0.00 | 93 | 1021.6 |
| 20260506120531 | 9 | 32 | 1.6 | 1.6 | 0.00 | 0.00 | 0.00 | 93 | 1021.6 |
| 20260506120028 | 9 | 26 | 3.2 | 4.8 | 0.00 | 0.00 | 0.00 | 93 | 1021.7 |
| 20260506115526 | 9 | 27 | 1.6 | 3.2 | 0.00 | 0.00 | 0.00 | 93 | 1021.6 |
| 20260506115024 | 9 | 27 | 3.2 | 4.8 | 0.00 | 0.00 | 0.00 | 93 | 1021.6 |
| 20260506114521 | 10 | 41 | 0.0 | 1.6 | 0.00 | 0.00 | 0.00 | 93 | 1021.6 |
| 20260506114020 | 9 | 26 | 1.6 | 4.8 | 0.00 | 0.00 | 0.00 | 94 | 1021.7 |
| 20260506113517 | 9 | 23 | 4.8 | 4.8 | 0.00 | 0.00 | 0.00 | 95 | 1021.7 |
| 20260506113014 | 9 | 30 | 1.6 | 4.8 | 0.00 | 0.00 | 0.00 | 95 | 1021.5 |
| 20260506112511 | 9 | 33 | 0.0 | 1.6 | 0.00 | 0.00 | 0.00 | 95 | 1021.7 |
| 20260506112008 | 8 | 34 | 1.6 | 1.6 | 0.00 | 0.00 | 0.00 | 96 | 1021.8 |
| 20260506111506 | 8 | 37 | 0.0 | 0.0 | 0.00 | 0.00 | 0.00 | 95 | 1021.8 |
| 20260506111003 | 8 | 38 | 0.0 | 0.0 | 0.00 | 0.00 | 0.00 | 95 | 1021.6 |
| 20260506110501 | 8 | 37 | 0.0 | 0.0 | 0.00 | 0.00 | 0.00 | 95 | 1021.6 |
| 20260506105957 | 8 | 38 | 0.0 | 0.0 | 0.00 | 0.00 | 0.00 | 94 | 1021.7 |
| 20260506105453 | 9 | 38 | 0.0 | 0.0 | 0.00 | 0.00 | 0.00 | 94 | 1021.7 |
| 20260506104951 | 9 | 37 | 0.0 | 0.0 | 0.00 | 0.00 | 0.00 | 94 | 1021.6 |
| 20260506104449 | 9 | 27 | 0.0 | 0.0 | 0.00 | 0.00 | 0.00 | 95 | 1021.7 |
| 20260506103947 | 9 | 27 | 0.0 | 0.0 | 0.00 | 0.00 | 0.00 | 94 | 1021.3 |
| 20260506103444 | 9 | 26 | 0.0 | 0.0 | 0.00 | 0.00 | 0.00 | 94 | 1021.5 |
| 20260506102940 | 9 | 27 | 1.6 | 1.6 | 0.00 | 0.00 | 0.00 | 94 | 1021.5 |
| 20260506102439 | 10 | 27 | 0.0 | 0.0 | 0.00 | 0.00 | 0.00 | 93 | 1021.5 |
| 20260506101936 | 10 | 27 | 0.0 | 0.0 | 0.00 | 0.00 | 0.00 | 93 | 1021.6 |
| 20260506101432 | 10 | 27 | 0.0 | 0.0 | 0.00 | 0.00 | 0.00 | 93 | 1021.5 |
| 20260506100929 | 10 | 26 | 0.0 | 0.0 | 0.00 | 0.00 | 0.00 | 93 | 1021.7 |
| 20260506100428 | 10 | 26 | 0.0 | 1.6 | 0.00 | 0.00 | 0.00 | 93 | 1021.5 |
| 20260506095925 | 10 | 26 | 0.0 | 3.2 | 0.00 | 0.00 | 0.00 | 94 | 1021.5 |
| 20260506095424 | 10 | 25 | 0.0 | 1.6 | 0.00 | 0.00 | 0.00 | 94 | 1021.4 |
| 20260506094919 | 10 | 26 | 1.6 | 3.2 | 0.00 | 0.00 | 0.00 | 94 | 1021.5 |
| 20260506094418 | 10 | 25 | 3.2 | 4.8 | 0.00 | 0.00 | 0.00 | 93 | 1021.5 |
| 20260506093915 | 10 | 28 | 0.0 | 1.6 | 0.00 | 0.00 | 0.00 | 93 | 1021.5 |
| 20260506093413 | 10 | 28 | 3.2 | 3.2 | 0.00 | 0.00 | 0.00 | 93 | 1021.7 |
| 20260506092911 | 10 | 28 | 1.6 | 1.6 | 0.00 | 0.00 | 0.00 | 93 | 1021.6 |
| 20260506092409 | 10 | 30 | 1.6 | 3.2 | 0.00 | 0.00 | 0.00 | 93 | 1021.4 |
| 20260506091905 | 10 | 25 | 1.6 | 3.2 | 0.00 | 0.00 | 0.00 | 93 | 1021.4 |
| 20260506091403 | 10 | 23 | 1.6 | 8.0 | 0.00 | 0.00 | 0.00 | 93 | 1021.5 |
| 20260506090900 | 10 | 20 | 4.8 | 8.0 | 0.00 | 0.00 | 0.00 | 93 | 1021.7 |
| 20260506090358 | 10 | 16 | 4.8 | 4.8 | 0.00 | 0.00 | 0.00 | 92 | 1021.7 |
| 20260506085854 | 10 | 28 | 1.6 | 3.2 | 0.00 | 0.00 | 0.00 | 92 | 1021.9 |
| 20260506085350 | 10 | 27 | 3.2 | 4.8 | 0.00 | 0.00 | 0.00 | 93 | 1021.7 |
| 20260506084847 | 10 | 24 | 3.2 | 4.8 | 0.00 | 0.00 | 0.00 | 92 | 1021.9 |
| 20260506084344 | 10 | 23 | 3.2 | 4.8 | 0.00 | 0.00 | 0.00 | 93 | 1021.8 |
| 20260506083840 | 10 | 22 | 3.2 | 4.8 | 0.00 | 0.00 | 0.00 | 93 | 1021.9 |
| 20260506083338 | 10 | 25 | 3.2 | 3.2 | 0.00 | 0.00 | 0.00 | 93 | 1021.8 |
| 20260506082835 | 10 | 25 | 0.0 | 0.0 | 0.00 | 0.00 | 0.00 | 92 | 1022.0 |
| 20260506082332 | 10 | 25 | 0.0 | 0.0 | 0.00 | 0.00 | 0.00 | 93 | 1021.9 |
| 20260506081827 | 11 | 25 | 0.0 | 0.0 | 0.00 | 0.00 | 0.00 | 93 | 1021.9 |
| 20260506081326 | 10 | 25 | 0.0 | 0.0 | 0.00 | 0.00 | 0.00 | 93 | 1021.8 |
| 20260506080823 | 11 | 25 | 0.0 | 1.6 | 0.00 | 0.00 | 0.00 | 93 | 1021.9 |
| 20260506080319 | 11 | 25 | 0.0 | 0.0 | 0.00 | 0.00 | 0.00 | 92 | 1022.0 |
| 20260506073304 | 11 | 36 | 1.6 | 4.8 | 0.00 | 0.00 | 0.00 | 92 | 1021.7 |
| 20260506072800 | 11 | 36 | 1.6 | 3.2 | 0.00 | 0.00 | 0.00 | 92 | 1021.8 |
| 20260506072258 | 11 | 36 | 1.6 | 3.2 | 0.00 | 0.00 | 0.00 | 92 | 1021.8 |
| 20260506071755 | 11 | 36 | 3.2 | 3.2 | 0.00 | 0.00 | 0.00 | 92 | 1021.6 |
| 20260506071254 | 11 | 36 | 3.2 | 3.2 | 0.00 | 0.00 | 0.00 | 92 | 1021.7 |
| 20260506070750 | 11 | 38 | 1.6 | 3.2 | 0.00 | 0.00 | 0.00 | 91 | 1021.8 |
| 20260506070247 | 11 | 38 | 0.0 | 0.0 | 0.00 | 0.00 | 0.00 | 91 | 1021.6 |
| 20260506062224 | 12 | 32 | 0.0 | 3.2 | 0.00 | 0.00 | 0.00 | 88 | 1021.5 |
| 20260506061720 | 12 | 15 | 3.2 | 4.8 | 0.00 | 0.00 | 0.00 | 89 | 1021.1 |
| 20260506061218 | 12 | 26 | 1.6 | 4.8 | 0.00 | 0.00 | 0.00 | 89 | 1021.3 |
| 20260506060716 | 12 | 49 | 0.0 | 0.0 | 0.00 | 0.00 | 0.00 | 88 | 1021.3 |
| 20260506060213 | 12 | 50 | 0.0 | 1.6 | 0.00 | 0.00 | 0.00 | 88 | 1021.3 |
| 20260506051145 | 12 | 30 | 3.2 | 3.2 | 0.00 | 0.00 | 0.00 | 86 | 1021.0 |
| 20260506050643 | 12 | 346 | 3.2 | 3.2 | 0.00 | 0.00 | 0.00 | 87 | 1021.0 |
| 20260506050140 | 12 | 11 | 3.2 | 4.8 | 0.00 | 0.00 | 0.00 | 87 | 1020.8 |
| 20260506045133 | 12 | 38 | 0.0 | 1.6 | 0.00 | 0.00 | 0.00 | 86 | 1020.9 |
| 20260506044631 | 12 | 38 | 0.0 | 0.0 | 0.00 | 0.00 | 0.00 | 85 | 1020.9 |
| 20260506044128 | 12 | 63 | 0.0 | 0.0 | 0.00 | 0.00 | 0.00 | 84 | 1020.9 |
| 20260506043625 | 12 | 43 | 0.0 | 1.6 | 0.00 | 0.00 | 0.00 | 84 | 1020.7 |
| 20260506043123 | 13 | 60 | 1.6 | 1.6 | 0.00 | 0.00 | 0.00 | 83 | 1020.7 |
| 20260506042622 | 12 | 49 | 1.6 | 3.2 | 0.00 | 0.00 | 0.00 | 84 | 1020.6 |
| 20260506042119 | 13 | 32 | 0.0 | 4.8 | 0.00 | 0.00 | 0.00 | 83 | 1020.6 |
| 20260506041618 | 13 | 59 | 1.6 | 1.6 | 0.00 | 0.00 | 0.00 | 83 | 1020.6 |
| 20260506041114 | 13 | 40 | 0.0 | 1.6 | 0.00 | 0.00 | 0.00 | 83 | 1020.3 |
| 20260506040612 | 13 | 36 | 1.6 | 1.6 | 0.00 | 0.00 | 0.00 | 82 | 1020.6 |
| 20260506040108 | 13 | 299 | 1.6 | 9.7 | 0.00 | 0.00 | 0.00 | 82 | 1020.2 |
| 20260506035605 | 13 | 31 | 0.0 | 3.2 | 0.00 | 0.00 | 0.00 | 81 | 1020.3 |
| 20260506035102 | 13 | 45 | 0.0 | 1.6 | 0.00 | 0.00 | 0.00 | 80 | 1020.3 |
| 20260506034559 | 13 | 61 | 0.0 | 1.6 | 0.00 | 0.00 | 0.00 | 80 | 1019.9 |
| 20260506034056 | 13 | 13 | 1.6 | 8.0 | 0.00 | 0.00 | 0.00 | 80 | 1019.9 |
| 20260506033553 | 13 | 104 | 0.0 | 4.8 | 0.00 | 0.00 | 0.00 | 79 | 1020.1 |
| 20260506033050 | 13 | 292 | 1.6 | 11.3 | 0.00 | 0.00 | 0.00 | 79 | 1020.0 |
| 20260506032547 | 13 | 332 | 0.0 | 1.6 | 0.00 | 0.00 | 0.00 | 78 | 1019.7 |
| 20260506032044 | 13 | 4 | 4.8 | 8.0 | 0.00 | 0.00 | 0.00 | 78 | 1019.7 |
| 20260506031542 | 13 | 268 | 1.6 | 3.2 | 0.00 | 0.00 | 0.00 | 78 | 1019.5 |
| 20260506031038 | 13 | 131 | 0.0 | 1.6 | 0.00 | 0.00 | 0.00 | 77 | 1019.5 |
| 20260506030537 | 13 | 277 | 3.2 | 3.2 | 0.00 | 0.00 | 0.00 | 77 | 1019.7 |
| 20260506030034 | 13 | 316 | 1.6 | 3.2 | 0.00 | 0.00 | 0.00 | 76 | 1019.4 |
| 20260506025531 | 14 | 8 | 3.2 | 11.3 | 0.00 | 0.00 | 0.00 | 75 | 1019.3 |
| 20260506025027 | 14 | 137 | 0.0 | 1.6 | 0.00 | 0.00 | 0.00 | 74 | 1019.3 |
| 20260506024524 | 14 | 41 | 0.0 | 4.8 | 0.00 | 0.00 | 0.00 | 74 | 1019.2 |
| 20260506024020 | 14 | 273 | 4.8 | 8.0 | 0.00 | 0.00 | 0.00 | 73 | 1019.0 |
| 20260506023516 | 15 | 44 | 3.2 | 17.7 | 0.00 | 0.00 | 0.00 | 72 | 1019.0 |
| 20260506023014 | 15 | 19 | 4.8 | 11.3 | 0.00 | 0.00 | 0.00 | 71 | 1019.1 |
| 20260506022511 | 15 | 343 | 4.8 | 8.0 | 0.00 | 0.00 | 0.00 | 71 | 1018.9 |
| 20260506022008 | 15 | 39 | 0.0 | 4.8 | 0.00 | 0.00 | 0.00 | 70 | 1019.1 |
| 20260506021506 | 15 | 11 | 6.4 | 14.5 | 0.00 | 0.00 | 0.00 | 68 | 1018.9 |
| 20260506021003 | 15 | 4 | 6.4 | 9.7 | 0.00 | 0.00 | 0.00 | 66 | 1019.0 |
| 20260506020501 | 15 | 50 | 0.0 | 1.6 | 0.00 | 0.00 | 0.00 | 65 | 1018.8 |
| 20260506015957 | 15 | 4 | 4.8 | 9.7 | 0.00 | 0.00 | 0.00 | 63 | 1018.8 |
| 20260506015455 | 16 | 88 | 1.6 | 9.7 | 0.00 | 0.00 | 0.00 | 62 | 1018.8 |
| 20260506014952 | 16 | 24 | 9.7 | 12.9 | 0.00 | 0.00 | 0.00 | 60 | 1018.6 |
| 20260506014449 | 16 | 14 | 6.4 | 12.9 | 0.00 | 0.00 | 0.00 | 59 | 1018.6 |
| 20260506013945 | 16 | 68 | 0.0 | 14.5 | 0.00 | 0.00 | 0.00 | 58 | 1018.7 |
| 20260506013443 | 16 | 44 | 3.2 | 20.9 | 0.00 | 0.00 | 0.00 | 58 | 1018.6 |
| 20260506012939 | 17 | 58 | 1.6 | 4.8 | 0.00 | 0.00 | 0.00 | 57 | 1018.6 |
| 20260506012436 | 17 | 3 | 4.8 | 11.3 | 0.00 | 0.00 | 0.00 | 57 | 1018.6 |
| 20260506011933 | 17 | 59 | 0.0 | 9.7 | 0.00 | 0.00 | 0.00 | 57 | 1018.7 |
| 20260506011430 | 17 | 81 | 0.0 | 9.7 | 0.00 | 0.00 | 0.00 | 54 | 1018.6 |
| 20260506010927 | 18 | 56 | 1.6 | 9.7 | 0.00 | 0.00 | 0.00 | 54 | 1018.6 |
| 20260506010426 | 18 | 65 | 1.6 | 8.0 | 0.00 | 0.00 | 0.00 | 54 | 1018.7 |
| 20260506005921 | 19 | 29 | 1.6 | 9.7 | 0.00 | 0.00 | 0.00 | 53 | 1018.6 |
| 20260506005420 | 19 | 165 | 1.6 | 3.2 | 0.00 | 0.00 | 0.00 | 53 | 1018.6 |
| 20260506004914 | 18 | 30 | 3.2 | 4.8 | 0.00 | 0.00 | 0.00 | 55 | 1018.5 |
| 20260506004413 | 19 | 238 | 8.0 | 14.5 | 0.00 | 0.00 | 0.00 | 54 | 1018.6 |
| 20260506003908 | 19 | 40 | 0.0 | 4.8 | 0.00 | 0.00 | 0.00 | 52 | 1018.5 |
| 20260506003405 | 19 | 147 | 0.0 | 8.0 | 0.00 | 0.00 | 0.00 | 54 | 1018.5 |
| 20260506002902 | 20 | 16 | 1.6 | 9.7 | 0.00 | 0.00 | 0.00 | 52 | 1018.5 |
| 20260506002358 | 19 | 88 | 0.0 | 8.0 | 0.00 | 0.00 | 0.00 | 55 | 1018.6 |
| 20260506001853 | 19 | 152 | 6.4 | 8.0 | 0.00 | 0.00 | 0.00 | 57 | 1018.6 |
| 20260506001350 | 20 | 234 | 8.0 | 11.3 | 0.00 | 0.00 | 0.00 | 58 | 1018.4 |
| 20260506000847 | 19 | 115 | 1.6 | 3.2 | 0.00 | 0.00 | 0.00 | 58 | 1018.5 |
| 20260506000346 | 18 | 166 | 4.8 | 9.7 | 0.00 | 0.00 | 0.00 | 60 | 1018.3 |
| 20260505235842 | 18 | 272 | 8.0 | 12.9 | 0.00 | 0.00 | 0.00 | 61 | 1018.3 |
| 20260505235339 | 19 | 194 | 1.6 | 3.2 | 0.00 | 0.00 | 0.00 | 59 | 1018.5 |
| 20260505234836 | 19 | 245 | 4.8 | 9.7 | 0.00 | 0.00 | 0.00 | 59 | 1018.3 |
| 20260505234334 | 18 | 200 | 3.2 | 3.2 | 0.00 | 0.00 | 0.00 | 59 | 1018.3 |
| 20260505233831 | 20 | 0 | 1.6 | 11.3 | 0.00 | 0.00 | 0.00 | 59 | 1018.3 |
| 20260505233329 | 20 | 242 | 3.2 | 4.8 | 0.00 | 0.00 | 0.00 | 57 | 1018.3 |
| 20260505232826 | 18 | 234 | 4.8 | 12.9 | 0.00 | 0.00 | 0.00 | 60 | 1018.5 |
| 20260505232323 | 18 | 132 | 1.6 | 8.0 | 0.00 | 0.00 | 0.00 | 60 | 1018.5 |
| 20260505231820 | 18 | 218 | 3.2 | 11.3 | 0.00 | 0.00 | 0.00 | 62 | 1018.6 |
| 20260505231318 | 18 | 242 | 6.4 | 12.9 | 0.00 | 0.00 | 0.00 | 63 | 1018.3 |
| 20260505230816 | 18 | 225 | 8.0 | 14.5 | 0.00 | 0.00 | 0.00 | 62 | 1018.2 |
| 20260505230313 | 18 | 216 | 8.0 | 11.3 | 0.00 | 0.00 | 0.00 | 60 | 1018.4 |
| 20260505225809 | 18 | 264 | 6.4 | 14.5 | 0.00 | 0.00 | 0.00 | 62 | 1018.7 |
| 20260505225306 | 18 | 207 | 8.0 | 20.9 | 0.00 | 0.00 | 0.00 | 62 | 1018.7 |
| 20260505224801 | 18 | 239 | 11.3 | 20.9 | 0.00 | 0.00 | 0.00 | 61 | 1018.4 |
| 20260505224259 | 18 | 185 | 12.9 | 16.1 | 0.00 | 0.00 | 0.00 | 61 | 1018.5 |
| 20260505223757 | 18 | 189 | 8.0 | 16.1 | 0.00 | 0.00 | 0.00 | 60 | 1018.7 |
| 20260505223253 | 18 | 242 | 11.3 | 16.1 | 0.00 | 0.00 | 0.00 | 60 | 1018.7 |
| 20260505222749 | 18 | 219 | 8.0 | 16.1 | 0.00 | 0.00 | 0.00 | 59 | 1018.9 |
| 20260505222246 | 18 | 207 | 12.9 | 17.7 | 0.00 | 0.00 | 0.00 | 58 | 1018.8 |
| 20260505221743 | 18 | 275 | 12.9 | 16.1 | 0.00 | 0.00 | 0.00 | 60 | 1019.0 |